sensor_id;sensor_type;location;lat;lon;timestamp;pressure;altitude;pressure_sealevel;temperature;humidity
15405;BME280;7801;48.124;11.590;2023-12-29T00:01:54;95606.22;;;9.79;74.89
15405;BME280;7801;48.124;11.590;2023-12-29T00:04:22;95610.44;;;9.80;74.90
15405;BME280;7801;48.124;11.590;2023-12-29T00:06:49;95602.87;;;9.68;75.86
15405;BME280;7801;48.124;11.590;2023-12-29T00:09:15;95603.22;;;9.61;75.99
15405;BME280;7801;48.124;11.590;2023-12-29T00:11:41;95600.03;;;9.59;76.29
15405;BME280;7801;48.124;11.590;2023-12-29T00:14:08;95590.06;;;9.51;77.00
15405;BME280;7801;48.124;11.590;2023-12-29T00:16:34;95581.78;;;9.58;76.65
15405;BME280;7801;48.124;11.590;2023-12-29T00:19:01;95577.75;;;9.65;76.25
15405;BME280;7801;48.124;11.590;2023-12-29T00:21:28;95569.31;;;9.58;76.57
15405;BME280;7801;48.124;11.590;2023-12-29T00:23:54;95568.50;;;9.63;76.26
15405;BME280;7801;48.124;11.590;2023-12-29T00:26:22;95567.47;;;9.59;76.30
15405;BME280;7801;48.124;11.590;2023-12-29T00:28:48;95563.63;;;9.46;76.75
15405;BME280;7801;48.124;11.590;2023-12-29T00:31:16;95571.25;;;9.53;76.32
15405;BME280;7801;48.124;11.590;2023-12-29T00:33:45;95567.19;;;9.60;75.94
15405;BME280;7801;48.124;11.590;2023-12-29T00:36:26;95571.09;;;9.39;76.15
15405;BME280;7801;48.124;11.590;2023-12-29T00:38:51;95569.59;;;9.33;76.48
15405;BME280;7801;48.124;11.590;2023-12-29T00:41:18;95566.78;;;9.48;75.04
15405;BME280;7801;48.124;11.590;2023-12-29T00:43:45;95560.47;;;9.44;74.87
15405;BME280;7801;48.124;11.590;2023-12-29T00:46:13;95569.22;;;9.45;74.16
15405;BME280;7801;48.124;11.590;2023-12-29T00:48:42;95561.59;;;9.38;73.81
15405;BME280;7801;48.124;11.590;2023-12-29T00:51:09;95560.47;;;9.44;73.17
15405;BME280;7801;48.124;11.590;2023-12-29T00:53:37;95554.91;;;9.17;73.66
15405;BME280;7801;48.124;11.590;2023-12-29T00:56:02;95549.84;;;9.20;73.25
15405;BME280;7801;48.124;11.590;2023-12-29T00:58:29;95552.31;;;9.12;73.66
15405;BME280;7801;48.124;11.590;2023-12-29T01:00:54;95544.97;;;9.04;73.82
15405;BME280;7801;48.124;11.590;2023-12-29T01:03:20;95549.69;;;9.07;73.49
15405;BME280;7801;48.124;11.590;2023-12-29T01:05:47;95541.72;;;9.12;72.96
15405;BME280;7801;48.124;11.590;2023-12-29T01:08:12;95547.28;;;9.10;73.03
15405;BME280;7801;48.124;11.590;2023-12-29T01:10:38;95536.59;;;8.91;73.78
15405;BME280;7801;48.124;11.590;2023-12-29T01:13:04;95542.87;;;9.01;73.36
15405;BME280;7801;48.124;11.590;2023-12-29T01:15:30;95545.19;;;9.07;72.97
15405;BME280;7801;48.124;11.590;2023-12-29T01:17:56;95541.75;;;9.07;73.01
15405;BME280;7801;48.124;11.590;2023-12-29T01:20:21;95549.22;;;9.00;73.39
15405;BME280;7801;48.124;11.590;2023-12-29T01:22:46;95555.00;;;9.07;73.00
15405;BME280;7801;48.124;11.590;2023-12-29T01:25:11;95567.63;;;9.15;72.60
15405;BME280;7801;48.124;11.590;2023-12-29T01:27:38;95574.44;;;9.21;72.31
15405;BME280;7801;48.124;11.590;2023-12-29T01:30:07;95573.91;;;9.24;71.99
15405;BME280;7801;48.124;11.590;2023-12-29T01:32:35;95571.34;;;9.14;72.48
15405;BME280;7801;48.124;11.590;2023-12-29T01:35:02;95575.94;;;9.03;72.80
15405;BME280;7801;48.124;11.590;2023-12-29T01:37:29;95573.59;;;8.96;73.22
15405;BME280;7801;48.124;11.590;2023-12-29T01:39:56;95570.09;;;9.06;72.77
15405;BME280;7801;48.124;11.590;2023-12-29T01:42:22;95572.22;;;9.04;72.84
15405;BME280;7801;48.124;11.590;2023-12-29T01:44:49;95560.50;;;8.76;74.12
15405;BME280;7801;48.124;11.590;2023-12-29T01:47:21;95557.56;;;8.83;74.01
15405;BME280;7801;48.124;11.590;2023-12-29T01:49:49;95557.34;;;8.74;74.29
15405;BME280;7801;48.124;11.590;2023-12-29T01:52:17;95563.16;;;8.76;74.22
15405;BME280;7801;48.124;11.590;2023-12-29T01:54:46;95559.25;;;8.69;74.51
15405;BME280;7801;48.124;11.590;2023-12-29T01:57:15;95545.41;;;8.82;74.15
15405;BME280;7801;48.124;11.590;2023-12-29T01:59:43;95549.78;;;8.63;74.66
15405;BME280;7801;48.124;11.590;2023-12-29T02:02:12;95539.19;;;8.63;74.80
15405;BME280;7801;48.124;11.590;2023-12-29T02:04:40;95546.31;;;8.67;74.30
15405;BME280;7801;48.124;11.590;2023-12-29T02:07:08;95541.53;;;8.69;74.07
15405;BME280;7801;48.124;11.590;2023-12-29T02:09:34;95538.66;;;8.66;73.97
15405;BME280;7801;48.124;11.590;2023-12-29T02:12:04;95541.03;;;8.67;73.92
15405;BME280;7801;48.124;11.590;2023-12-29T02:14:31;95534.16;;;8.66;73.77
15405;BME280;7801;48.124;11.590;2023-12-29T02:17:15;95534.19;;;8.56;73.80
15405;BME280;7801;48.124;11.590;2023-12-29T02:19:53;95535.72;;;8.67;73.53
15405;BME280;7801;48.124;11.590;2023-12-29T02:22:19;95527.81;;;8.62;73.42
15405;BME280;7801;48.124;11.590;2023-12-29T02:24:48;95518.28;;;8.66;73.08
15405;BME280;7801;48.124;11.590;2023-12-29T02:30:20;95522.91;;;8.50;73.35
15405;BME280;7801;48.124;11.590;2023-12-29T02:32:54;95533.13;;;8.62;72.44
15405;BME280;7801;48.124;11.590;2023-12-29T02:35:43;95523.06;;;8.64;72.67
15405;BME280;7801;48.124;11.590;2023-12-29T02:38:10;95529.44;;;8.58;72.47
15405;BME280;7801;48.124;11.590;2023-12-29T02:40:36;95522.81;;;8.60;72.02
15405;BME280;7801;48.124;11.590;2023-12-29T02:43:02;95527.81;;;8.62;71.98
15405;BME280;7801;48.124;11.590;2023-12-29T02:45:30;95527.00;;;8.67;71.85
15405;BME280;7801;48.124;11.590;2023-12-29T02:47:56;95524.66;;;8.60;71.50
15405;BME280;7801;48.124;11.590;2023-12-29T02:50:24;95510.31;;;8.71;71.16
15405;BME280;7801;48.124;11.590;2023-12-29T02:52:49;95507.75;;;8.56;71.67
15405;BME280;7801;48.124;11.590;2023-12-29T02:55:17;95510.38;;;8.61;71.13
15405;BME280;7801;48.124;11.590;2023-12-29T02:57:43;95507.47;;;8.63;71.02
15405;BME280;7801;48.124;11.590;2023-12-29T03:00:08;95509.81;;;8.64;70.77
15405;BME280;7801;48.124;11.590;2023-12-29T03:02:35;95494.25;;;8.63;70.60
15405;BME280;7801;48.124;11.590;2023-12-29T03:05:00;95493.97;;;8.64;70.54
15405;BME280;7801;48.124;11.590;2023-12-29T03:07:26;95490.53;;;8.64;70.26
15405;BME280;7801;48.124;11.590;2023-12-29T03:09:52;95479.19;;;8.58;70.43
15405;BME280;7801;48.124;11.590;2023-12-29T03:12:19;95476.53;;;8.63;69.92
15405;BME280;7801;48.124;11.590;2023-12-29T03:14:45;95468.47;;;8.73;69.73
15405;BME280;7801;48.124;11.590;2023-12-29T03:17:13;95470.84;;;8.75;69.07
15405;BME280;7801;48.124;11.590;2023-12-29T03:19:39;95478.09;;;8.64;69.67
15405;BME280;7801;48.124;11.590;2023-12-29T03:22:06;95472.31;;;8.57;70.28
15405;BME280;7801;48.124;11.590;2023-12-29T03:24:31;95476.56;;;8.58;70.58
15405;BME280;7801;48.124;11.590;2023-12-29T03:26:57;95475.19;;;8.66;69.73
15405;BME280;7801;48.124;11.590;2023-12-29T03:29:25;95470.72;;;8.61;69.77
15405;BME280;7801;48.124;11.590;2023-12-29T03:31:50;95475.97;;;8.66;69.55
15405;BME280;7801;48.124;11.590;2023-12-29T03:34:17;95478.59;;;8.71;68.78
15405;BME280;7801;48.124;11.590;2023-12-29T03:36:44;95486.81;;;8.65;68.86
15405;BME280;7801;48.124;11.590;2023-12-29T03:39:09;95481.50;;;8.70;69.10
15405;BME280;7801;48.124;11.590;2023-12-29T03:41:36;95481.31;;;8.56;69.51
15405;BME280;7801;48.124;11.590;2023-12-29T03:44:02;95480.75;;;8.64;68.97
15405;BME280;7801;48.124;11.590;2023-12-29T03:46:31;95480.22;;;8.62;69.06
15405;BME280;7801;48.124;11.590;2023-12-29T03:48:58;95467.75;;;8.68;68.36
15405;BME280;7801;48.124;11.590;2023-12-29T03:51:24;95469.69;;;8.57;68.78
15405;BME280;7801;48.124;11.590;2023-12-29T03:53:49;95471.28;;;8.53;69.16
15405;BME280;7801;48.124;11.590;2023-12-29T03:56:17;95481.66;;;8.49;69.79
15405;BME280;7801;48.124;11.590;2023-12-29T03:58:45;95479.22;;;8.53;69.06
15405;BME280;7801;48.124;11.590;2023-12-29T04:01:11;95470.81;;;8.51;69.23
15405;BME280;7801;48.124;11.590;2023-12-29T04:03:38;95464.47;;;8.52;68.77
15405;BME280;7801;48.124;11.590;2023-12-29T04:06:07;95464.16;;;8.53;68.74
15405;BME280;7801;48.124;11.590;2023-12-29T04:08:34;95460.25;;;8.46;69.45
15405;BME280;7801;48.124;11.590;2023-12-29T04:11:00;95456.97;;;8.59;68.16
15405;BME280;7801;48.124;11.590;2023-12-29T04:13:27;95467.03;;;8.57;66.52
15405;BME280;7801;48.124;11.590;2023-12-29T04:15:52;95461.69;;;8.67;66.37
15405;BME280;7801;48.124;11.590;2023-12-29T04:18:23;95459.00;;;8.72;65.54
15405;BME280;7801;48.124;11.590;2023-12-29T04:20:49;95449.94;;;8.78;64.91
15405;BME280;7801;48.124;11.590;2023-12-29T04:23:16;95452.78;;;8.87;64.67
15405;BME280;7801;48.124;11.590;2023-12-29T04:25:43;95451.94;;;8.91;64.46
15405;BME280;7801;48.124;11.590;2023-12-29T04:28:10;95457.25;;;8.91;64.99
15405;BME280;7801;48.124;11.590;2023-12-29T04:30:37;95463.53;;;8.95;65.00
15405;BME280;7801;48.124;11.590;2023-12-29T04:33:04;95448.25;;;8.92;63.49
15405;BME280;7801;48.124;11.590;2023-12-29T04:35:30;95451.56;;;9.03;63.82
15405;BME280;7801;48.124;11.590;2023-12-29T04:37:58;95451.25;;;9.10;63.59
15405;BME280;7801;48.124;11.590;2023-12-29T04:40:25;95452.88;;;9.06;63.55
15405;BME280;7801;48.124;11.590;2023-12-29T04:42:53;95455.97;;;9.13;63.08
15405;BME280;7801;48.124;11.590;2023-12-29T04:45:19;95447.44;;;9.16;63.15
15405;BME280;7801;48.124;11.590;2023-12-29T04:47:46;95445.28;;;9.23;62.97
15405;BME280;7801;48.124;11.590;2023-12-29T04:50:13;95440.47;;;9.25;63.71
15405;BME280;7801;48.124;11.590;2023-12-29T04:52:39;95444.19;;;9.24;62.98
15405;BME280;7801;48.124;11.590;2023-12-29T04:55:04;95442.06;;;9.26;62.89
15405;BME280;7801;48.124;11.590;2023-12-29T04:57:30;95444.81;;;9.40;62.46
15405;BME280;7801;48.124;11.590;2023-12-29T04:59:57;95440.38;;;9.35;62.18
15405;BME280;7801;48.124;11.590;2023-12-29T05:02:25;95444.53;;;9.41;63.31
15405;BME280;7801;48.124;11.590;2023-12-29T05:04:51;95444.19;;;9.48;62.81
15405;BME280;7801;48.124;11.590;2023-12-29T05:07:16;95449.28;;;9.44;62.91
15405;BME280;7801;48.124;11.590;2023-12-29T05:09:43;95452.59;;;9.55;62.68
15405;BME280;7801;48.124;11.590;2023-12-29T05:12:09;95449.88;;;9.60;63.32
15405;BME280;7801;48.124;11.590;2023-12-29T05:14:36;95446.88;;;9.67;62.44
15405;BME280;7801;48.124;11.590;2023-12-29T05:17:04;95446.78;;;9.53;62.94
15405;BME280;7801;48.124;11.590;2023-12-29T05:19:31;95444.94;;;9.53;63.92
15405;BME280;7801;48.124;11.590;2023-12-29T05:21:56;95436.84;;;9.63;63.75
15405;BME280;7801;48.124;11.590;2023-12-29T05:24:23;95446.59;;;9.68;63.09
15405;BME280;7801;48.124;11.590;2023-12-29T05:26:49;95438.31;;;9.75;63.55
15405;BME280;7801;48.124;11.590;2023-12-29T05:29:15;95443.03;;;9.78;63.33
15405;BME280;7801;48.124;11.590;2023-12-29T05:31:41;95439.91;;;9.76;63.87
15405;BME280;7801;48.124;11.590;2023-12-29T05:34:07;95450.69;;;9.79;63.66
15405;BME280;7801;48.124;11.590;2023-12-29T05:36:36;95449.72;;;9.75;64.00
15405;BME280;7801;48.124;11.590;2023-12-29T05:39:06;95451.28;;;9.76;63.89
15405;BME280;7801;48.124;11.590;2023-12-29T05:41:32;95447.75;;;9.81;63.41
15405;BME280;7801;48.124;11.590;2023-12-29T05:43:59;95459.81;;;9.92;63.18
15405;BME280;7801;48.124;11.590;2023-12-29T05:46:28;95461.00;;;9.81;63.42
15405;BME280;7801;48.124;11.590;2023-12-29T05:48:54;95458.63;;;9.79;63.54
15405;BME280;7801;48.124;11.590;2023-12-29T05:51:21;95462.34;;;9.78;63.70
15405;BME280;7801;48.124;11.590;2023-12-29T05:53:48;95465.22;;;9.82;63.35
15405;BME280;7801;48.124;11.590;2023-12-29T05:56:14;95464.72;;;9.80;63.40
15405;BME280;7801;48.124;11.590;2023-12-29T05:58:42;95463.75;;;9.76;63.66
15405;BME280;7801;48.124;11.590;2023-12-29T06:01:10;95466.94;;;9.73;64.13
15405;BME280;7801;48.124;11.590;2023-12-29T06:03:35;95465.37;;;9.72;63.92
15405;BME280;7801;48.124;11.590;2023-12-29T06:06:02;95465.78;;;9.79;63.55
15405;BME280;7801;48.124;11.590;2023-12-29T06:08:29;95460.72;;;9.82;63.22
15405;BME280;7801;48.124;11.590;2023-12-29T06:10:55;95461.50;;;9.83;63.44
15405;BME280;7801;48.124;11.590;2023-12-29T06:13:23;95474.25;;;9.81;63.37
15405;BME280;7801;48.124;11.590;2023-12-29T06:15:50;95471.59;;;9.81;63.39
15405;BME280;7801;48.124;11.590;2023-12-29T06:18:15;95477.41;;;9.83;63.39
15405;BME280;7801;48.124;11.590;2023-12-29T06:20:42;95470.53;;;9.82;63.33
15405;BME280;7801;48.124;11.590;2023-12-29T06:23:08;95469.34;;;9.93;62.73
15405;BME280;7801;48.124;11.590;2023-12-29T06:25:35;95472.22;;;9.96;63.08
15405;BME280;7801;48.124;11.590;2023-12-29T06:28:06;95477.84;;;9.90;62.58
15405;BME280;7801;48.124;11.590;2023-12-29T06:30:33;95486.16;;;10.02;62.18
15405;BME280;7801;48.124;11.590;2023-12-29T06:32:59;95490.81;;;9.91;62.38
15405;BME280;7801;48.124;11.590;2023-12-29T06:35:26;95486.44;;;9.82;62.92
15405;BME280;7801;48.124;11.590;2023-12-29T06:37:53;95482.59;;;9.93;62.96
15405;BME280;7801;48.124;11.590;2023-12-29T06:40:22;95476.47;;;9.74;62.87
15405;BME280;7801;48.124;11.590;2023-12-29T06:42:50;95474.16;;;9.67;63.10
15405;BME280;7801;48.124;11.590;2023-12-29T06:45:16;95478.56;;;9.77;62.73
15405;BME280;7801;48.124;11.590;2023-12-29T06:47:44;95475.19;;;9.71;62.94
15405;BME280;7801;48.124;11.590;2023-12-29T06:50:09;95476.63;;;9.58;63.38
15405;BME280;7801;48.124;11.590;2023-12-29T06:52:39;95475.00;;;9.62;63.61
15405;BME280;7801;48.124;11.590;2023-12-29T06:55:06;95471.34;;;9.58;63.68
15405;BME280;7801;48.124;11.590;2023-12-29T06:57:35;95490.75;;;9.54;63.47
15405;BME280;7801;48.124;11.590;2023-12-29T07:00:02;95483.50;;;9.59;63.93
15405;BME280;7801;48.124;11.590;2023-12-29T07:02:30;95481.31;;;9.67;63.48
15405;BME280;7801;48.124;11.590;2023-12-29T07:04:57;95475.19;;;9.71;63.44
15405;BME280;7801;48.124;11.590;2023-12-29T07:07:25;95467.50;;;9.70;64.05
15405;BME280;7801;48.124;11.590;2023-12-29T07:09:51;95472.63;;;9.85;63.59
15405;BME280;7801;48.124;11.590;2023-12-29T07:12:16;95478.19;;;9.83;64.98
15405;BME280;7801;48.124;11.590;2023-12-29T07:14:46;95476.84;;;9.86;65.49
15405;BME280;7801;48.124;11.590;2023-12-29T07:17:11;95472.81;;;9.70;66.42
15405;BME280;7801;48.124;11.590;2023-12-29T07:19:40;95471.19;;;9.74;66.59
15405;BME280;7801;48.124;11.590;2023-12-29T07:22:10;95477.03;;;9.71;67.09
15405;BME280;7801;48.124;11.590;2023-12-29T07:24:35;95473.53;;;9.75;67.06
15405;BME280;7801;48.124;11.590;2023-12-29T07:27:01;95473.75;;;9.79;67.27
15405;BME280;7801;48.124;11.590;2023-12-29T07:29:30;95480.34;;;9.81;67.42
15405;BME280;7801;48.124;11.590;2023-12-29T07:31:58;95475.97;;;9.72;68.40
15405;BME280;7801;48.124;11.590;2023-12-29T07:34:26;95478.16;;;9.64;69.26
15405;BME280;7801;48.124;11.590;2023-12-29T07:36:55;95483.91;;;9.72;69.44
15405;BME280;7801;48.124;11.590;2023-12-29T07:39:22;95481.00;;;9.73;69.72
15405;BME280;7801;48.124;11.590;2023-12-29T07:41:53;95489.22;;;9.72;70.11
15405;BME280;7801;48.124;11.590;2023-12-29T07:44:20;95488.69;;;9.70;70.97
15405;BME280;7801;48.124;11.590;2023-12-29T07:46:46;95491.88;;;9.72;71.56
15405;BME280;7801;48.124;11.590;2023-12-29T07:49:13;95488.66;;;9.75;72.28
15405;BME280;7801;48.124;11.590;2023-12-29T07:51:40;95497.94;;;9.72;73.10
15405;BME280;7801;48.124;11.590;2023-12-29T07:54:06;95498.97;;;9.76;73.36
15405;BME280;7801;48.124;11.590;2023-12-29T07:56:35;95500.75;;;9.81;73.21
15405;BME280;7801;48.124;11.590;2023-12-29T07:59:04;95500.97;;;9.84;73.28
15405;BME280;7801;48.124;11.590;2023-12-29T08:01:30;95504.75;;;9.78;73.66
15405;BME280;7801;48.124;11.590;2023-12-29T08:03:58;95506.69;;;9.73;74.46
15405;BME280;7801;48.124;11.590;2023-12-29T08:06:24;95516.22;;;9.74;74.58
15405;BME280;7801;48.124;11.590;2023-12-29T08:08:50;95515.16;;;9.75;74.58
15405;BME280;7801;48.124;11.590;2023-12-29T08:11:17;95516.88;;;9.84;74.58
15405;BME280;7801;48.124;11.590;2023-12-29T08:13:48;95514.28;;;9.79;75.19
15405;BME280;7801;48.124;11.590;2023-12-29T08:16:16;95517.16;;;9.83;75.03
15405;BME280;7801;48.124;11.590;2023-12-29T08:18:49;95523.75;;;9.85;75.12
15405;BME280;7801;48.124;11.590;2023-12-29T08:21:21;95516.63;;;9.81;75.44
15405;BME280;7801;48.124;11.590;2023-12-29T08:23:48;95517.03;;;9.93;74.92
15405;BME280;7801;48.124;11.590;2023-12-29T08:26:16;95514.72;;;9.86;75.35
15405;BME280;7801;48.124;11.590;2023-12-29T08:28:42;95511.28;;;9.86;75.52
15405;BME280;7801;48.124;11.590;2023-12-29T08:31:10;95516.47;;;9.96;75.18
15405;BME280;7801;48.124;11.590;2023-12-29T08:33:36;95526.47;;;9.99;74.72
15405;BME280;7801;48.124;11.590;2023-12-29T08:36:03;95518.91;;;9.92;74.92
15405;BME280;7801;48.124;11.590;2023-12-29T08:38:30;95523.62;;;9.95;74.79
15405;BME280;7801;48.124;11.590;2023-12-29T08:41:01;95522.34;;;9.93;74.92
15405;BME280;7801;48.124;11.590;2023-12-29T08:43:27;95527.56;;;9.98;74.81
15405;BME280;7801;48.124;11.590;2023-12-29T08:45:54;95528.56;;;10.02;74.66
15405;BME280;7801;48.124;11.590;2023-12-29T08:48:20;95517.97;;;10.02;74.79
15405;BME280;7801;48.124;11.590;2023-12-29T08:50:47;95520.34;;;10.04;74.39
15405;BME280;7801;48.124;11.590;2023-12-29T08:53:15;95523.72;;;10.09;73.97
15405;BME280;7801;48.124;11.590;2023-12-29T08:55:45;95512.31;;;10.09;73.87
15405;BME280;7801;48.124;11.590;2023-12-29T08:58:12;95518.75;;;10.03;74.14
15405;BME280;7801;48.124;11.590;2023-12-29T09:00:37;95512.37;;;10.04;74.18
15405;BME280;7801;48.124;11.590;2023-12-29T09:03:04;95512.37;;;10.04;74.31
15405;BME280;7801;48.124;11.590;2023-12-29T09:05:30;95509.41;;;10.10;74.37
15405;BME280;7801;48.124;11.590;2023-12-29T09:07:56;95520.06;;;10.05;74.70
15405;BME280;7801;48.124;11.590;2023-12-29T09:10:21;95517.56;;;9.95;75.36
15405;BME280;7801;48.124;11.590;2023-12-29T09:12:49;95513.81;;;9.96;75.78
15405;BME280;7801;48.124;11.590;2023-12-29T09:15:15;95516.84;;;10.08;74.92
15405;BME280;7801;48.124;11.590;2023-12-29T09:17:43;95519.22;;;10.10;74.97
15405;BME280;7801;48.124;11.590;2023-12-29T09:20:16;95521.00;;;10.14;74.88
15405;BME280;7801;48.124;11.590;2023-12-29T09:22:44;95523.66;;;10.14;74.99
15405;BME280;7801;48.124;11.590;2023-12-29T09:25:09;95523.88;;;10.18;74.92
15405;BME280;7801;48.124;11.590;2023-12-29T09:27:36;95526.75;;;10.21;74.58
15405;BME280;7801;48.124;11.590;2023-12-29T09:30:03;95528.56;;;10.26;74.57
15405;BME280;7801;48.124;11.590;2023-12-29T09:32:32;95527.84;;;10.20;74.70
15405;BME280;7801;48.124;11.590;2023-12-29T09:34:58;95525.63;;;10.27;74.70
15405;BME280;7801;48.124;11.590;2023-12-29T09:37:26;95519.87;;;10.20;74.80
15405;BME280;7801;48.124;11.590;2023-12-29T09:39:51;95521.47;;;10.21;74.81
15405;BME280;7801;48.124;11.590;2023-12-29T09:42:21;95519.97;;;10.34;74.12
15405;BME280;7801;48.124;11.590;2023-12-29T09:44:50;95515.53;;;10.29;74.40
15405;BME280;7801;48.124;11.590;2023-12-29T09:47:28;95509.94;;;10.31;74.22
15405;BME280;7801;48.124;11.590;2023-12-29T09:49:57;95511.75;;;10.36;73.99
15405;BME280;7801;48.124;11.590;2023-12-29T09:52:22;95514.41;;;10.36;73.98
15405;BME280;7801;48.124;11.590;2023-12-29T09:54:52;95527.37;;;10.37;74.09
15405;BME280;7801;48.124;11.590;2023-12-29T09:57:20;95527.28;;;10.42;73.73
15405;BME280;7801;48.124;11.590;2023-12-29T09:59:48;95520.69;;;10.40;73.89
15405;BME280;7801;48.124;11.590;2023-12-29T10:02:20;95516.66;;;10.42;73.92
15405;BME280;7801;48.124;11.590;2023-12-29T10:04:45;95515.09;;;10.41;73.84
15405;BME280;7801;48.124;11.590;2023-12-29T10:07:22;95514.31;;;10.41;73.92
15405;BME280;7801;48.124;11.590;2023-12-29T10:09:53;95503.50;;;10.37;74.08
15405;BME280;7801;48.124;11.590;2023-12-29T10:12:24;95505.09;;;10.38;74.19
15405;BME280;7801;48.124;11.590;2023-12-29T10:15:10;95496.34;;;10.38;74.27
15405;BME280;7801;48.124;11.590;2023-12-29T10:17:58;95494.75;;;10.37;74.43
15405;BME280;7801;48.124;11.590;2023-12-29T10:23:13;95488.72;;;10.31;75.24
15405;BME280;7801;48.124;11.590;2023-12-29T10:25:43;95492.47;;;10.30;75.63
15405;BME280;7801;48.124;11.590;2023-12-29T10:28:13;95481.63;;;10.26;76.95
15405;BME280;7801;48.124;11.590;2023-12-29T10:30:39;95482.84;;;10.34;77.16
15405;BME280;7801;48.124;11.590;2023-12-29T10:33:06;95470.69;;;10.33;77.92
15405;BME280;7801;48.124;11.590;2023-12-29T10:35:35;95466.16;;;10.33;78.62
15405;BME280;7801;48.124;11.590;2023-12-29T10:38:13;95465.59;;;10.37;78.82
15405;BME280;7801;48.124;11.590;2023-12-29T10:40:40;95468.25;;;10.37;79.34
15405;BME280;7801;48.124;11.590;2023-12-29T10:43:09;95465.41;;;10.47;79.18
15405;BME280;7801;48.124;11.590;2023-12-29T10:45:35;95457.31;;;10.57;78.95
15405;BME280;7801;48.124;11.590;2023-12-29T10:48:04;95458.97;;;10.53;79.24
15405;BME280;7801;48.124;11.590;2023-12-29T10:50:45;95457.03;;;10.58;79.15
15405;BME280;7801;48.124;11.590;2023-12-29T10:53:17;95460.94;;;10.61;79.21
15405;BME280;7801;48.124;11.590;2023-12-29T10:55:43;95458.59;;;10.59;79.30
15405;BME280;7801;48.124;11.590;2023-12-29T10:58:10;95453.00;;;10.61;79.21
15405;BME280;7801;48.124;11.590;2023-12-29T11:00:36;95445.81;;;10.61;79.17
15405;BME280;7801;48.124;11.590;2023-12-29T11:03:02;95445.91;;;10.56;79.36
15405;BME280;7801;48.124;11.590;2023-12-29T11:05:31;95441.31;;;10.62;79.01
15405;BME280;7801;48.124;11.590;2023-12-29T11:07:59;95437.50;;;10.68;78.65
15405;BME280;7801;48.124;11.590;2023-12-29T11:10:26;95440.16;;;10.68;78.42
15405;BME280;7801;48.124;11.590;2023-12-29T11:12:56;95433.28;;;10.67;78.42
15405;BME280;7801;48.124;11.590;2023-12-29T11:15:25;95442.72;;;10.73;78.20
15405;BME280;7801;48.124;11.590;2023-12-29T11:17:51;95435.84;;;10.72;78.15
15405;BME280;7801;48.124;11.590;2023-12-29T11:20:18;95432.78;;;10.65;78.67
15405;BME280;7801;48.124;11.590;2023-12-29T11:22:48;95429.38;;;10.78;77.92
15405;BME280;7801;48.124;11.590;2023-12-29T11:25:14;95440.00;;;10.78;77.96
15405;BME280;7801;48.124;11.590;2023-12-29T11:27:42;95426.81;;;10.73;78.17
15405;BME280;7801;48.124;11.590;2023-12-29T11:30:14;95421.13;;;10.80;77.90
15405;BME280;7801;48.124;11.590;2023-12-29T11:32:55;95428.66;;;10.73;78.41
15405;BME280;7801;48.124;11.590;2023-12-29T11:35:50;95425.25;;;10.86;77.71
15405;BME280;7801;48.124;11.590;2023-12-29T11:41:42;95418.38;;;10.85;77.82
15405;BME280;7801;48.124;11.590;2023-12-29T11:44:10;95425.03;;;10.82;77.67
15405;BME280;7801;48.124;11.590;2023-12-29T11:46:40;95418.28;;;10.76;78.15
15405;BME280;7801;48.124;11.590;2023-12-29T11:49:09;95418.78;;;10.78;77.99
15405;BME280;7801;48.124;11.590;2023-12-29T11:51:42;95418.06;;;10.86;77.87
15405;BME280;7801;48.124;11.590;2023-12-29T11:54:09;95407.53;;;10.81;78.19
15405;BME280;7801;48.124;11.590;2023-12-29T11:56:40;95415.63;;;10.76;78.37
15405;BME280;7801;48.124;11.590;2023-12-29T11:59:22;95420.53;;;10.83;78.05
15405;BME280;7801;48.124;11.590;2023-12-29T12:01:52;95408.97;;;10.92;77.57
15405;BME280;7801;48.124;11.590;2023-12-29T12:04:42;95417.00;;;10.87;77.60
15405;BME280;7801;48.124;11.590;2023-12-29T12:09:38;95407.66;;;10.90;77.27
15405;BME280;7801;48.124;11.590;2023-12-29T12:12:05;95405.13;;;10.98;76.91
15405;BME280;7801;48.124;11.590;2023-12-29T12:17:28;95390.88;;;10.94;77.03
15405;BME280;7801;48.124;11.590;2023-12-29T12:19:58;95396.38;;;10.98;77.04
15405;BME280;7801;48.124;11.590;2023-12-29T12:22:24;95384.50;;;10.95;76.71
15405;BME280;7801;48.124;11.590;2023-12-29T12:24:55;95397.19;;;10.98;76.72
15405;BME280;7801;48.124;11.590;2023-12-29T12:27:25;95390.19;;;11.02;76.58
15405;BME280;7801;48.124;11.590;2023-12-29T12:29:58;95390.88;;;10.94;76.84
15405;BME280;7801;48.124;11.590;2023-12-29T12:32:29;95392.66;;;10.99;76.64
15405;BME280;7801;48.124;11.590;2023-12-29T12:34:56;95389.72;;;11.00;76.86
15405;BME280;7801;48.124;11.590;2023-12-29T12:37:30;95381.25;;;10.98;76.63
15405;BME280;7801;48.124;11.590;2023-12-29T12:39:59;95385.19;;;11.01;76.74
15405;BME280;7801;48.124;11.590;2023-12-29T12:42:24;95389.09;;;11.03;76.30
15405;BME280;7801;48.124;11.590;2023-12-29T12:44:56;95378.97;;;11.06;75.96
15405;BME280;7801;48.124;11.590;2023-12-29T12:47:50;95394.53;;;11.12;75.52
15405;BME280;7801;48.124;11.590;2023-12-29T12:50:17;95391.09;;;11.12;75.87
15405;BME280;7801;48.124;11.590;2023-12-29T12:52:44;95392.25;;;11.06;76.12
15405;BME280;7801;48.124;11.590;2023-12-29T12:55:12;95392.66;;;11.13;75.17
15405;BME280;7801;48.124;11.590;2023-12-29T12:57:41;95389.59;;;11.06;75.72
15405;BME280;7801;48.124;11.590;2023-12-29T13:00:07;95390.28;;;11.11;75.28
15405;BME280;7801;48.124;11.590;2023-12-29T13:02:34;95388.81;;;11.05;75.53
15405;BME280;7801;48.124;11.590;2023-12-29T13:05:04;95390.88;;;11.08;74.80
15405;BME280;7801;48.124;11.590;2023-12-29T13:07:34;95387.34;;;11.13;74.77
15405;BME280;7801;48.124;11.590;2023-12-29T13:10:11;95394.44;;;11.17;74.23
15405;BME280;7801;48.124;11.590;2023-12-29T13:12:38;95387.13;;;11.09;74.49
15405;BME280;7801;48.124;11.590;2023-12-29T13:15:09;95398.25;;;11.11;74.32
15405;BME280;7801;48.124;11.590;2023-12-29T13:17:36;95391.66;;;11.22;73.63
15405;BME280;7801;48.124;11.590;2023-12-29T13:20:01;95406.44;;;11.15;73.88
15405;BME280;7801;48.124;11.590;2023-12-29T13:22:30;95393.66;;;11.17;73.60
15405;BME280;7801;48.124;11.590;2023-12-29T13:24:59;95395.22;;;11.18;73.49
15405;BME280;7801;48.124;11.590;2023-12-29T13:27:26;95396.87;;;11.14;73.60